Time;durP1;ratioP1;P1;durP2;ratioP2;P2;SDS_P1;SDS_P2;PMS_P1;PMS_P2;Temp;Humidity;BMP_temperature;BMP_pressure;BME280_temperature;BME280_humidity;BME280_pressure;Samples;Min_cycle;Max_cycle;Signal;HPM_P1;HPM_P2
2021/04/30 05:01:28;;;;;;;7.60;6.60;;;;;;;20.62;58.74;94787.56;5523759;23;20514;-74
2021/04/30 05:03:54;;;;;;;7.28;5.53;;;;;;;28.05;40.62;94785.81;4968494;28;20047;-75
2021/04/30 05:06:19;;;;;;;7.90;5.90;;;;;;;23.53;48.82;94785.41;4988314;28;20060;-74
2021/04/30 05:08:45;;;;;;;7.50;5.97;;;;;;;20.79;56.11;94787.59;4986207;28;20054;-75
2021/04/30 05:11:10;;;;;;;7.43;6.18;;;;;;;21.41;54.10;94793.66;4988625;28;20120;-75
2021/04/30 05:13:36;;;;;;;8.20;6.32;;;;;;;20.47;57.69;94787.31;4951269;28;20411;-74
2021/04/30 05:16:01;;;;;;;12.43;6.65;;;;;;;20.57;56.93;94782.25;4963953;28;20403;-75
2021/04/30 05:18:27;;;;;;;12.10;6.57;;;;;;;20.83;57.11;94794.81;4954075;28;20034;-75
2021/04/30 05:20:53;;;;;;;9.27;5.85;;;;;;;27.53;42.00;94797.25;4968430;28;20740;-76
2021/04/30 05:23:18;;;;;;;8.50;5.35;;;;;;;26.51;41.42;94802.44;4953006;28;20059;-76
2021/04/30 05:25:44;;;;;;;8.00;5.35;;;;;;;22.38;51.34;94789.38;4951508;28;20082;-75
2021/04/30 05:28:09;;;;;;;9.57;5.97;;;;;;;20.77;55.98;94797.59;4986193;28;20022;-75
2021/04/30 05:30:35;;;;;;;10.60;6.10;;;;;;;23.27;51.08;94797.63;4968930;28;20022;-75
2021/04/30 05:33:01;;;;;;;8.68;6.43;;;;;;;20.78;56.21;94789.44;4973728;28;20113;-74
2021/04/30 05:35:27;;;;;;;10.50;6.85;;;;;;;19.77;59.19;94794.59;4990133;28;20515;-75
2021/04/30 05:37:52;;;;;;;8.70;6.63;;;;;;;23.26;50.41;94793.38;4973714;28;20033;-76
2021/04/30 05:40:18;;;;;;;12.60;6.32;;;;;;;21.22;55.18;94806.28;4992381;28;20496;-75
2021/04/30 05:42:43;;;;;;;9.30;6.85;;;;;;;28.39;40.06;94791.84;4988017;28;20077;-76
2021/04/30 05:45:11;;;;;;;27.73;6.50;;;;;;;31.44;34.37;94792.19;4991843;28;20496;-76
2021/04/30 05:47:36;;;;;;;9.93;5.43;;;;;;;23.35;48.67;94783.13;4957079;28;20040;-76
2021/04/30 05:50:02;;;;;;;8.77;6.03;;;;;;;26.36;43.52;94780.47;4974063;28;20031;-76
2021/04/30 05:52:28;;;;;;;6.18;4.78;;;;;;;31.34;33.89;94779.84;4956878;28;20026;-76
2021/04/30 05:54:53;;;;;;;9.70;4.03;;;;;;;33.23;31.15;94785.13;4991074;28;20022;-76
2021/04/30 05:57:19;;;;;;;5.18;4.45;;;;;;;34.69;29.17;94777.41;4990993;28;20034;-77
2021/04/30 05:59:44;;;;;;;6.72;4.90;;;;;;;36.36;27.31;94784.09;4945507;28;20430;-76
2021/04/30 06:02:10;;;;;;;4.93;4.07;;;;;;;37.84;25.52;94788.50;5303462;23;20117;-75
2021/04/30 06:04:35;;;;;;;4.68;4.13;;;;;;;38.39;25.16;94784.91;4953267;28;20050;-75
2021/04/30 06:07:01;;;;;;;7.82;4.15;;;;;;;37.46;26.55;94780.13;4990322;28;20030;-76
2021/04/30 06:09:26;;;;;;;6.03;3.85;;;;;;;39.27;24.16;94777.97;4989814;28;20496;-74
2021/04/30 06:11:51;;;;;;;7.28;4.78;;;;;;;39.10;24.14;94767.53;4987413;28;20034;-75
2021/04/30 06:14:18;;;;;;;5.80;4.70;;;;;;;39.01;24.22;94762.31;4986113;28;20026;-74
2021/04/30 06:16:43;;;;;;;7.45;4.45;;;;;;;39.00;24.07;94765.38;4985764;28;20093;-75
2021/04/30 06:19:09;;;;;;;7.63;4.65;;;;;;;39.53;23.72;94768.41;4990075;28;20490;-75
2021/04/30 06:21:34;;;;;;;11.60;5.22;;;;;;;35.48;27.17;94764.91;4989366;28;20519;-75
2021/04/30 06:24:01;;;;;;;13.73;5.68;;;;;;;35.46;28.92;94754.44;4988836;28;20034;-75
2021/04/30 06:26:27;;;;;;;7.30;5.65;;;;;;;32.77;32.04;94756.97;4989502;28;20034;-74
2021/04/30 06:28:52;;;;;;;10.38;6.10;;;;;;;29.13;37.08;94753.72;4973044;28;20023;-74
2021/04/30 06:31:17;;;;;;;7.90;5.18;;;;;;;29.24;37.67;94765.03;4988897;28;20030;-74
2021/04/30 06:33:43;;;;;;;14.85;5.70;;;;;;;25.08;46.32;94765.03;4985670;28;20031;-74
2021/04/30 06:36:08;;;;;;;9.35;6.03;;;;;;;26.81;43.01;94776.81;4987774;28;20057;-74
2021/04/30 06:38:34;;;;;;;9.25;4.63;;;;;;;27.41;42.12;94780.84;4990096;28;20614;-74
2021/04/30 06:40:59;;;;;;;7.63;5.05;;;;;;;29.12;39.62;94778.81;4988192;28;20411;-74
2021/04/30 06:43:25;;;;;;;10.13;5.53;;;;;;;32.23;32.48;94774.38;4988290;28;20518;-74
2021/04/30 06:45:50;;;;;;;8.50;4.85;;;;;;;34.30;31.09;94786.63;4989715;28;20038;-75
2021/04/30 06:48:16;;;;;;;10.93;5.13;;;;;;;30.32;35.04;94787.69;4989257;28;20031;-75
2021/04/30 06:50:41;;;;;;;7.93;5.43;;;;;;;31.90;33.35;94799.09;4989972;28;20030;-74
2021/04/30 06:53:07;;;;;;;13.95;5.50;;;;;;;32.55;32.64;94794.66;4989186;28;20022;-75
2021/04/30 06:55:32;;;;;;;11.95;5.72;;;;;;;30.98;35.45;94797.06;4972648;28;20458;-75
2021/04/30 06:57:58;;;;;;;10.73;5.47;;;;;;;30.71;36.30;94805.91;4988662;28;20062;-74
2021/04/30 07:00:23;;;;;;;10.88;5.00;;;;;;;29.03;38.43;94809.91;4990241;28;20870;-75
2021/04/30 07:02:48;;;;;;;7.32;5.32;;;;;;;27.68;39.86;94813.09;4988506;28;20546;-75
2021/04/30 07:05:14;;;;;;;10.93;5.18;;;;;;;29.16;37.88;94816.41;4989902;28;20022;-75
2021/04/30 07:07:40;;;;;;;9.07;4.75;;;;;;;27.35;42.75;94820.03;4986311;28;20479;-74
2021/04/30 07:10:07;;;;;;;8.27;5.85;;;;;;;25.72;44.87;94810.38;4969582;28;20031;-74
2021/04/30 07:12:32;;;;;;;6.47;4.82;;;;;;;26.06;46.26;94811.38;4970542;28;20046;-74
2021/04/30 07:14:58;;;;;;;11.85;5.90;;;;;;;25.03;48.95;94815.41;4969228;28;20035;-74
2021/04/30 07:17:24;;;;;;;10.57;5.38;;;;;;;24.63;49.08;94811.59;4970316;28;20030;-74
2021/04/30 07:19:49;;;;;;;9.82;5.72;;;;;;;24.66;47.97;94811.06;4975056;28;20045;-74
2021/04/30 07:22:15;;;;;;;7.25;4.90;;;;;;;26.43;46.54;94813.63;4977207;28;20041;-74
2021/04/30 07:24:41;;;;;;;9.77;4.72;;;;;;;25.41;45.98;94809.59;4974757;28;20031;-75
2021/04/30 07:27:06;;;;;;;6.15;4.50;;;;;;;25.93;44.12;94813.78;4977019;28;20026;-73
2021/04/30 07:29:33;;;;;;;11.18;5.32;;;;;;;25.40;46.25;94812.50;4980344;28;20081;-74
2021/04/30 07:31:59;;;;;;;8.35;3.92;;;;;;;25.84;44.14;94812.75;4972337;28;20041;-74
2021/04/30 07:34:25;;;;;;;8.48;3.75;;;;;;;27.19;40.21;94818.56;4972211;28;20037;-74
2021/04/30 07:36:50;;;;;;;13.13;4.28;;;;;;;23.75;46.07;94817.03;4972998;28;20039;-75
2021/04/30 07:39:16;;;;;;;12.77;3.97;;;;;;;24.81;44.33;94817.47;4974336;28;20034;-75
2021/04/30 07:41:41;;;;;;;7.18;4.03;;;;;;;26.87;38.52;94811.06;4954545;28;20107;-75
2021/04/30 07:44:07;;;;;;;6.63;4.20;;;;;;;25.91;41.35;94806.06;4970204;28;20065;-74
2021/04/30 07:46:32;;;;;;;10.27;3.47;;;;;;;26.95;40.47;94809.66;4971311;28;20022;-75
2021/04/30 07:48:58;;;;;;;6.93;3.55;;;;;;;26.69;39.51;94804.47;4972110;28;20046;-75
2021/04/30 07:51:23;;;;;;;5.90;3.53;;;;;;;26.81;39.93;94804.16;4970848;28;20041;-75
2021/04/30 07:53:48;;;;;;;8.10;3.15;;;;;;;27.55;38.50;94806.56;4967227;28;20398;-75
2021/04/30 07:56:14;;;;;;;6.05;2.92;;;;;;;25.23;41.39;94804.84;4957019;28;20691;-74
2021/04/30 07:58:39;;;;;;;7.22;3.63;;;;;;;24.80;40.63;94795.47;4973312;28;20034;-75
2021/04/30 08:01:05;;;;;;;9.15;3.72;;;;;;;25.57;42.33;94794.47;4980071;28;20041;-74
2021/04/30 08:03:32;;;;;;;6.50;3.38;;;;;;;26.90;39.73;94788.44;4987788;28;20422;-75
2021/04/30 08:05:57;;;;;;;7.53;3.55;;;;;;;26.99;41.16;94792.09;4970993;28;20063;-74
2021/04/30 08:08:23;;;;;;;5.95;3.30;;;;;;;26.67;42.39;94790.66;4968714;28;20054;-74
2021/04/30 08:10:48;;;;;;;4.78;3.28;;;;;;;26.90;40.38;94789.22;4967572;28;20046;-73
2021/04/30 08:13:14;;;;;;;7.00;2.72;;;;;;;25.83;42.23;94797.88;4968071;28;20479;-74
2021/04/30 08:15:39;;;;;;;7.05;2.75;;;;;;;27.04;39.57;94784.06;4967733;28;20030;-75
2021/04/30 08:18:05;;;;;;;7.55;2.72;;;;;;;27.04;39.17;94786.72;4968681;28;20042;-74
2021/04/30 08:20:30;;;;;;;8.30;2.50;;;;;;;26.96;39.69;94779.34;4967544;28;20415;-74
2021/04/30 08:22:56;;;;;;;9.15;2.75;;;;;;;25.93;39.00;94771.31;4951067;28;20069;-74
2021/04/30 08:25:21;;;;;;;7.05;2.55;;;;;;;26.49;42.20;94767.38;4968532;28;20035;-75
2021/04/30 08:27:47;;;;;;;7.30;2.63;;;;;;;26.97;40.55;94765.75;4967287;28;20026;-75
2021/04/30 08:30:13;;;;;;;11.52;3.03;;;;;;;26.01;42.29;94762.78;4968364;28;20031;-74
2021/04/30 08:32:39;;;;;;;8.25;2.50;;;;;;;26.18;42.84;94769.38;4966971;28;20030;-74
2021/04/30 08:35:05;;;;;;;5.70;2.42;;;;;;;25.33;42.24;94766.91;4968576;28;20515;-74
2021/04/30 08:37:30;;;;;;;6.65;2.63;;;;;;;26.45;40.72;94766.34;4967396;28;20113;-74
2021/04/30 08:39:57;;;;;;;8.43;2.42;;;;;;;26.31;40.81;94756.56;4968093;28;20088;-74
2021/04/30 08:42:23;;;;;;;10.15;1.90;;;;;;;25.96;37.92;94760.94;4968307;28;20065;-74
2021/04/30 08:44:48;;;;;;;6.32;2.10;;;;;;;26.60;39.90;94755.63;4972167;28;20054;-74
2021/04/30 08:47:17;;;;;;;4.90;2.08;;;;;;;27.25;39.87;94753.59;4967299;28;20031;-75
2021/04/30 08:49:42;;;;;;;8.52;2.50;;;;;;;26.45;38.16;94755.72;4967183;28;20089;-74
2021/04/30 08:52:10;;;;;;;9.00;2.05;;;;;;;26.69;37.79;94738.00;4968576;28;20066;-74
2021/04/30 08:54:36;;;;;;;9.70;1.98;;;;;;;27.23;37.46;94745.88;4977422;28;20575;-74
2021/04/30 08:57:04;;;;;;;7.72;2.10;;;;;;;27.82;36.31;94731.47;4967213;28;20467;-74
2021/04/30 08:59:29;;;;;;;5.55;2.45;;;;;;;26.71;36.15;94738.53;4974591;28;20494;-74
2021/04/30 09:01:55;;;;;;;5.13;2.03;;;;;;;26.18;39.52;94740.16;4952599;28;20027;-74
2021/04/30 09:04:20;;;;;;;9.73;2.40;;;;;;;26.07;35.65;94729.84;4974873;28;20073;-74
2021/04/30 09:06:46;;;;;;;3.90;2.15;;;;;;;25.85;36.42;94732.06;4947214;28;20470;-74
2021/04/30 09:09:16;;;;;;;9.80;2.00;;;;;;;27.13;37.56;94721.25;4977625;28;20026;-75
2021/04/30 09:11:47;;;;;;;4.32;1.70;;;;;;;27.36;36.32;94725.78;4973686;28;20037;-74
2021/04/30 09:14:19;;;;;;;4.60;1.60;;;;;;;27.86;37.40;94727.19;4971868;28;20050;-75
2021/04/30 09:16:57;;;;;;;5.65;1.85;;;;;;;27.27;36.59;94719.50;4978737;28;20415;-75
2021/04/30 09:19:55;;;;;;;4.20;2.05;;;;;;;27.69;36.61;94729.50;4975871;28;20088;-74
2021/04/30 09:22:31;;;;;;;5.63;2.13;;;;;;;26.47;36.64;94727.00;4966818;28;20042;-75
2021/04/30 09:25:07;;;;;;;13.85;2.25;;;;;;;26.34;36.03;94724.94;4974161;28;20121;-75
2021/04/30 09:27:39;;;;;;;7.53;2.10;;;;;;;26.40;36.34;94728.34;4971980;28;20038;-75
2021/04/30 09:30:20;;;;;;;7.78;2.22;;;;;;;27.40;35.63;94720.72;4973531;28;20496;-75
2021/04/30 09:33:10;;;;;;;10.93;2.22;;;;;;;25.94;36.96;94717.97;4973300;28;20644;-75
2021/04/30 09:35:42;;;;;;;9.02;2.33;;;;;;;25.72;38.54;94708.75;4976376;28;20051;-74
2021/04/30 09:38:19;;;;;;;8.32;2.15;;;;;;;26.85;37.16;94716.66;4972783;28;20412;-75
2021/04/30 09:40:45;;;;;;;7.43;1.90;;;;;;;27.22;35.99;94711.56;4980441;28;20344;-75
2021/04/30 09:43:11;;;;;;;9.10;2.22;;;;;;;27.64;35.95;94709.06;4947397;29;20045;-75
2021/04/30 09:45:36;;;;;;;7.63;1.70;;;;;;;27.16;34.27;94704.72;4951483;29;20030;-75
2021/04/30 09:48:06;;;;;;;11.25;2.22;;;;;;;26.84;36.90;94707.91;4952119;29;20023;-75
2021/04/30 09:50:32;;;;;;;4.75;1.65;;;;;;;27.12;37.89;94699.16;4951175;29;20114;-75
2021/04/30 09:52:59;;;;;;;7.28;2.00;;;;;;;27.28;35.69;94704.34;4952122;29;20103;-75
2021/04/30 09:55:57;;;;;;;4.82;1.40;;;;;;;27.85;35.19;94695.50;4950262;29;20151;-75
2021/04/30 09:58:23;;;;;;;7.13;1.90;;;;;;;27.80;37.09;94698.22;4902188;29;20043;-75
2021/04/30 10:00:50;;;;;;;5.07;1.67;;;;;;;27.58;36.58;94694.19;4952200;29;20031;-76
2021/04/30 10:03:17;;;;;;;5.90;2.03;;;;;;;28.30;35.16;94694.94;4932395;29;20448;-75
2021/04/30 10:06:15;;;;;;;5.25;1.63;;;;;;;27.63;35.36;94688.81;4951424;28;20027;-75
2021/04/30 10:08:41;;;;;;;7.65;2.08;;;;;;;28.05;35.53;94689.91;4950771;29;20050;-76
2021/04/30 10:11:30;;;;;;;3.97;1.63;;;;;;;28.01;35.43;94678.25;4951398;29;20151;-75
2021/04/30 10:13:55;;;;;;;;;;;;;;;27.61;34.29;94679.53;4951680;29;20046;-75
2021/04/30 10:16:21;;;;;;;7.67;1.93;;;;;;;28.33;34.71;94673.03;4949691;29;19922;-75
2021/04/30 10:18:46;;;;;;;7.88;1.98;;;;;;;28.09;31.53;94675.00;4965711;28;20274;-75
2021/04/30 10:21:12;;;;;;;7.68;2.05;;;;;;;28.02;33.83;94669.19;4970001;28;20022;-74
2021/04/30 10:23:38;;;;;;;4.90;1.60;;;;;;;27.81;35.18;94673.16;4970628;28;20026;-75
2021/04/30 10:26:03;;;;;;;8.45;2.50;;;;;;;28.26;34.72;94659.28;4953488;28;20093;-75
2021/04/30 10:28:29;;;;;;;9.57;1.98;;;;;;;28.40;33.96;94654.81;4953153;28;20039;-75
2021/04/30 10:31:12;;;;;;;3.60;1.58;;;;;;;28.48;33.02;94656.06;4937592;28;20023;-75
2021/04/30 10:33:41;;;;;;;9.15;2.03;;;;;;;27.18;33.76;94650.16;4937006;28;20038;-75
2021/04/30 10:36:13;;;;;;;7.47;2.33;;;;;;;27.26;36.96;94650.63;4954190;28;20038;-75
2021/04/30 10:38:58;;;;;;;6.05;2.00;;;;;;;27.60;35.69;94643.34;4952295;28;20037;-75
2021/04/30 10:41:33;;;;;;;8.45;2.17;;;;;;;27.41;35.42;94637.94;4970196;28;20034;-75
2021/04/30 10:44:22;;;;;;;7.93;1.98;;;;;;;27.65;35.58;94628.09;4970767;28;20030;-75
2021/04/30 10:47:11;;;;;;;3.97;1.45;;;;;;;27.90;33.65;94629.66;4969867;28;20031;-75
2021/04/30 10:49:36;;;;;;;21.08;2.83;;;;;;;27.88;35.66;94621.16;4964708;28;20039;-75
2021/04/30 10:52:09;;;;;;;4.05;1.55;;;;;;;27.87;35.06;94614.22;4974169;28;20546;-75
2021/04/30 10:54:38;;;;;;;9.70;2.15;;;;;;;27.63;36.44;94618.81;4976720;28;20401;-75
2021/04/30 10:57:04;;;;;;;10.27;2.03;;;;;;;26.71;35.40;94608.28;4963723;28;20041;-75
2021/04/30 10:59:35;;;;;;;8.30;1.73;;;;;;;27.11;36.71;94601.00;4973995;28;20035;-75
2021/04/30 11:02:21;;;;;;;5.40;1.77;;;;;;;26.63;35.46;94603.56;4983787;28;20043;-75
2021/04/30 11:05:15;;;;;;;7.57;1.98;;;;;;;26.32;35.30;94610.22;4964472;28;20504;-75
2021/04/30 11:07:50;;;;;;;5.53;1.60;;;;;;;27.03;37.03;94596.31;4956914;28;20106;-75
2021/04/30 11:13:18;;;;;;;7.88;2.25;;;;;;;27.07;37.00;94584.81;4988876;28;20123;-78
2021/04/30 11:15:44;;;;;;;5.07;1.80;;;;;;;26.69;36.41;94575.88;4989574;28;20031;-80
2021/04/30 11:18:10;;;;;;;11.90;2.03;;;;;;;27.06;36.37;94583.25;4989220;28;20404;-79
2021/04/30 11:20:36;;;;;;;10.23;1.90;;;;;;;27.40;35.87;94574.34;4988614;28;20026;-78
2021/04/30 11:23:20;;;;;;;6.63;2.50;;;;;;;26.73;34.97;94576.91;4989057;28;20037;-78
2021/04/30 11:25:54;;;;;;;6.20;1.52;;;;;;;26.85;37.09;94576.53;4988263;28;20027;-79
2021/04/30 11:28:20;;;;;;;18.30;2.25;;;;;;;27.41;36.33;94568.75;4989206;28;20027;-78
2021/04/30 11:31:11;;;;;;;5.88;1.63;;;;;;;26.77;36.14;94573.69;4970695;28;20500;-79
2021/04/30 11:33:40;;;;;;;4.22;1.67;;;;;;;27.29;36.05;94562.25;4956327;28;20112;-79
2021/04/30 11:36:17;;;;;;;47.95;4.28;;;;;;;27.84;34.83;94555.44;4972074;28;20113;-79
2021/04/30 11:38:47;;;;;;;6.22;1.83;;;;;;;27.78;34.90;94557.38;4970708;28;20085;-79
2021/04/30 11:41:13;;;;;;;5.85;1.70;;;;;;;28.24;33.79;94542.34;4989731;28;20460;-79
2021/04/30 11:43:40;;;;;;;7.60;1.65;;;;;;;27.74;35.72;94541.19;4970724;28;20029;-80
2021/04/30 11:46:06;;;;;;;8.13;2.30;;;;;;;28.16;37.34;94539.53;4955392;28;20040;-79
2021/04/30 11:48:32;;;;;;;5.80;2.00;;;;;;;28.09;36.33;94542.59;4988863;28;20415;-79
2021/04/30 11:51:05;;;;;;;7.22;2.20;;;;;;;27.79;37.51;94537.66;4970463;28;20109;-79
2021/04/30 11:53:34;;;;;;;11.18;2.03;;;;;;;28.02;35.69;94541.31;4988779;28;20525;-80
2021/04/30 11:56:00;;;;;;;7.45;1.80;;;;;;;28.02;34.30;94541.31;4987756;28;20109;-80
2021/04/30 11:58:45;;;;;;;4.43;1.60;;;;;;;27.90;34.93;94535.66;4971511;28;20122;-79
2021/04/30 12:01:12;;;;;;;6.13;1.98;;;;;;;28.15;35.50;94541.41;4971189;28;20488;-80
2021/04/30 12:03:44;;;;;;;6.38;1.77;;;;;;;28.09;35.49;94539.91;4987783;28;20046;-80
2021/04/30 12:06:15;;;;;;;5.10;1.65;;;;;;;27.96;36.13;94527.28;4988651;28;20023;-80
2021/04/30 12:08:44;;;;;;;5.70;1.70;;;;;;;27.89;35.88;94529.53;4987200;28;20479;-80
2021/04/30 12:11:10;;;;;;;;;;;;;;;28.00;35.51;94522.19;4972139;28;20026;-80
2021/04/30 12:13:39;;;;;;;5.82;1.83;;;;;;;28.31;35.25;94517.19;4970222;28;19941;-80
2021/04/30 12:16:14;;;;;;;;;;;;;;;28.23;34.99;94519.44;4969091;28;20084;-80
2021/04/30 12:18:39;;;;;;;10.57;1.88;;;;;;;27.93;34.48;94516.44;4951678;28;19964;-80
2021/04/30 12:21:05;;;;;;;7.63;1.60;;;;;;;28.08;36.58;94516.22;4962754;28;20034;-80
2021/04/30 12:23:30;;;;;;;7.20;1.92;;;;;;;28.15;36.75;94505.97;4988693;28;20029;-81
2021/04/30 12:25:56;;;;;;;21.63;2.33;;;;;;;28.09;37.53;94504.50;4969799;28;20034;-81
2021/04/30 12:28:24;;;;;;;33.20;2.97;;;;;;;28.16;35.26;94497.69;4988270;28;20034;-80
2021/04/30 12:31:05;;;;;;;7.47;1.75;;;;;;;28.77;35.95;94493.97;4987425;28;20037;-80
2021/04/30 12:33:45;;;;;;;30.52;3.40;;;;;;;28.90;36.70;94498.53;4972136;28;20419;-80
2021/04/30 12:36:12;;;;;;;32.60;3.78;;;;;;;28.23;35.59;94476.00;4969233;28;20042;-80
2021/04/30 12:38:39;;;;;;;7.80;2.28;;;;;;;27.96;33.42;94473.22;4950290;28;20039;-79
2021/04/30 12:41:06;;;;;;;24.63;3.00;;;;;;;28.26;34.52;94473.53;4920344;28;20031;-80
2021/04/30 12:43:32;;;;;;;33.55;3.72;;;;;;;28.26;35.39;94464.75;4954607;28;20031;-80
2021/04/30 12:45:59;;;;;;;7.45;1.75;;;;;;;28.22;35.37;94459.22;4972911;28;20097;-80
2021/04/30 12:48:25;;;;;;;6.75;2.03;;;;;;;28.67;33.53;94462.97;4938433;28;20126;-80
2021/04/30 12:50:51;;;;;;;6.30;1.60;;;;;;;29.07;34.58;94464.06;4972883;28;20039;-80
2021/04/30 12:53:16;;;;;;;26.23;2.63;;;;;;;29.16;35.54;94456.13;4943021;28;20023;-80
2021/04/30 12:55:42;;;;;;;12.32;2.13;;;;;;;28.82;34.99;94443.22;4958794;28;20094;-80
2021/04/30 12:58:18;;;;;;;8.07;1.88;;;;;;;28.56;33.77;94456.22;4974074;28;20065;-80
2021/04/30 13:01:13;;;;;;;6.43;1.67;;;;;;;28.56;33.90;94448.22;4955808;28;20027;-80
2021/04/30 13:03:40;;;;;;;13.18;2.22;;;;;;;27.83;32.87;94444.69;4957114;28;20046;-80
2021/04/30 13:06:07;;;;;;;11.00;1.92;;;;;;;28.29;31.22;94426.84;4957815;28;20026;-80
2021/04/30 13:08:34;;;;;;;6.05;1.77;;;;;;;28.30;35.34;94411.66;4981307;28;20037;-80
2021/04/30 13:11:04;;;;;;;13.27;1.85;;;;;;;28.72;34.80;94420.22;4975536;28;20037;-80
2021/04/30 13:13:30;;;;;;;9.43;2.50;;;;;;;29.19;33.51;94416.28;4965905;28;20154;-79
2021/04/30 13:16:00;;;;;;;10.48;2.28;;;;;;;29.01;35.05;94413.75;4947208;28;20113;-78
2021/04/30 13:18:33;;;;;;;8.32;1.80;;;;;;;28.48;34.46;94400.91;4971053;28;20030;-79
2021/04/30 13:20:58;;;;;;;4.05;1.55;;;;;;;28.55;34.72;94401.31;4991345;28;20025;-76
2021/04/30 13:23:34;;;;;;;11.52;2.30;;;;;;;28.03;32.35;94409.72;4991646;28;20484;-75
2021/04/30 13:26:00;;;;;;;8.23;1.60;;;;;;;28.13;33.87;94405.03;4989806;28;20026;-76
2021/04/30 13:28:30;;;;;;;6.47;1.83;;;;;;;28.14;32.25;94398.63;4991533;28;20030;-76
2021/04/30 13:30:56;;;;;;;5.60;1.83;;;;;;;28.28;31.31;94406.66;4990452;28;20085;-75
2021/04/30 13:33:22;;;;;;;14.43;2.67;;;;;;;28.42;31.63;94406.63;4990469;28;20041;-76
2021/04/30 13:35:49;;;;;;;8.95;1.88;;;;;;;29.01;30.43;94397.75;4990156;28;20031;-75
2021/04/30 13:38:24;;;;;;;8.05;2.50;;;;;;;28.26;34.72;94393.59;4991566;28;20034;-75
2021/04/30 13:40:49;;;;;;;3.78;1.45;;;;;;;28.55;31.97;94393.31;4973579;28;20034;-75
2021/04/30 13:43:30;;;;;;;8.43;1.80;;;;;;;28.25;33.33;94393.91;4990162;28;20082;-75
2021/04/30 13:46:12;;;;;;;8.30;1.95;;;;;;;28.79;33.67;94395.81;4990769;28;20066;-76
2021/04/30 13:48:39;;;;;;;4.55;1.90;;;;;;;28.18;32.65;94396.16;4972723;28;20030;-76
2021/04/30 13:51:05;;;;;;;6.47;1.58;;;;;;;28.37;31.90;94393.41;4991179;28;20034;-76
2021/04/30 13:53:30;;;;;;;7.15;1.80;;;;;;;28.55;32.72;94387.19;4989182;28;20523;-76
2021/04/30 13:55:58;;;;;;;5.00;1.75;;;;;;;28.66;27.72;94383.28;4989609;28;20023;-75
2021/04/30 13:58:24;;;;;;;9.30;1.73;;;;;;;29.17;28.17;94375.78;4990893;28;20030;-76
2021/04/30 14:00:49;;;;;;;13.20;2.08;;;;;;;29.11;29.33;94376.19;4989631;28;20426;-75
2021/04/30 14:03:14;;;;;;;8.32;1.75;;;;;;;28.96;26.66;94371.19;4986334;28;20046;-74
2021/04/30 14:05:40;;;;;;;14.63;3.53;;;;;;;28.70;27.59;94377.06;4973069;28;20639;-75
2021/04/30 14:08:05;;;;;;;11.73;3.03;;;;;;;28.69;28.04;94378.16;4970321;28;20480;-74
2021/04/30 14:10:32;;;;;;;7.75;2.70;;;;;;;28.96;28.80;94368.53;4979305;28;20513;-75
2021/04/30 14:12:58;;;;;;;5.82;1.60;;;;;;;28.93;26.57;94367.22;4990430;28;20026;-74
2021/04/30 14:15:23;;;;;;;13.90;3.15;;;;;;;28.93;27.85;94358.47;4990618;28;20078;-74
2021/04/30 14:17:49;;;;;;;11.18;3.22;;;;;;;28.97;27.92;94367.41;4989880;28;20022;-74
2021/04/30 14:20:15;;;;;;;9.20;2.38;;;;;;;28.77;27.85;94371.31;4990879;28;20447;-75
2021/04/30 14:22:41;;;;;;;10.38;2.33;;;;;;;28.70;28.73;94365.59;4989352;28;20058;-75
2021/04/30 14:25:07;;;;;;;4.45;2.22;;;;;;;28.73;27.43;94371.13;4973365;28;20077;-75
2021/04/30 14:27:34;;;;;;;6.45;1.92;;;;;;;28.76;26.04;94354.53;4971811;28;20443;-74
2021/04/30 14:29:59;;;;;;;6.88;1.73;;;;;;;28.92;24.77;94362.22;4972506;28;20031;-75
2021/04/30 14:32:24;;;;;;;8.68;2.72;;;;;;;28.84;26.55;94368.22;4990241;28;20030;-75
2021/04/30 14:34:50;;;;;;;25.80;2.60;;;;;;;28.91;25.21;94374.75;4989920;28;20030;-76
2021/04/30 14:37:15;;;;;;;14.98;3.42;;;;;;;28.65;27.18;94363.81;4990092;28;20034;-75
2021/04/30 14:39:41;;;;;;;22.02;3.63;;;;;;;28.60;26.53;94368.44;4989184;28;20073;-73
2021/04/30 14:42:07;;;;;;;10.68;2.75;;;;;;;28.90;26.05;94367.06;4975749;28;20038;-75
2021/04/30 14:44:33;;;;;;;5.22;2.10;;;;;;;28.71;26.82;94361.84;4975671;28;20034;-75
2021/04/30 14:46:59;;;;;;;13.23;2.35;;;;;;;28.60;28.32;94361.25;4972100;28;20066;-74
2021/04/30 14:49:24;;;;;;;11.88;2.40;;;;;;;28.60;27.57;94361.25;4973087;28;20038;-75
2021/04/30 14:51:49;;;;;;;12.73;2.63;;;;;;;28.48;26.83;94363.59;4973748;28;20030;-73
2021/04/30 14:54:15;;;;;;;7.75;2.10;;;;;;;28.54;28.69;94361.63;4974299;28;20019;-75
2021/04/30 14:56:41;;;;;;;11.40;1.95;;;;;;;28.84;27.68;94362.91;4980495;28;20042;-75
2021/04/30 14:59:07;;;;;;;8.02;2.00;;;;;;;28.73;27.34;94357.81;4969993;28;20805;-74
2021/04/30 15:01:38;;;;;;;9.13;2.03;;;;;;;28.62;26.36;94347.59;4986639;28;20040;-75
2021/04/30 15:04:07;;;;;;;14.85;3.45;;;;;;;28.37;27.25;94356.09;4988642;28;20070;-75
2021/04/30 15:06:32;;;;;;;;;;;;;;;28.18;28.57;94351.66;4970709;28;20070;-74
2021/04/30 15:08:58;;;;;;;14.15;3.85;;;;;;;27.79;28.44;94358.47;4989119;28;20394;-75
2021/04/30 15:11:24;;;;;;;12.63;3.47;;;;;;;28.00;28.53;94351.72;4988337;28;20435;-75
2021/04/30 15:13:49;;;;;;;8.73;1.98;;;;;;;28.35;27.02;94348.41;4987410;28;20108;-75
2021/04/30 15:16:15;;;;;;;14.45;4.57;;;;;;;28.09;28.78;94350.78;4989016;28;20026;-75
2021/04/30 15:18:41;;;;;;;9.38;2.70;;;;;;;28.45;25.73;94342.09;4979883;28;20023;-75
2021/04/30 15:21:06;;;;;;;11.57;2.17;;;;;;;28.24;26.64;94339.81;4975749;28;20026;-75
2021/04/30 15:23:32;;;;;;;9.85;2.67;;;;;;;28.42;25.39;94335.47;4976232;28;20042;-74
2021/04/30 15:25:58;;;;;;;8.23;2.20;;;;;;;28.41;27.24;94339.25;4978442;28;20109;-75
2021/04/30 15:28:23;;;;;;;10.82;2.72;;;;;;;28.34;27.46;94336.16;4955755;28;20050;-75
2021/04/30 15:30:49;;;;;;;8.30;2.22;;;;;;;28.32;28.00;94351.66;4977501;28;20030;-75
2021/04/30 15:33:14;;;;;;;8.30;1.90;;;;;;;28.45;28.46;94347.44;4981596;28;20023;-74
2021/04/30 15:35:40;;;;;;;5.82;2.22;;;;;;;28.69;27.72;94351.47;4977247;28;20037;-75
2021/04/30 15:38:06;;;;;;;8.68;3.53;;;;;;;28.08;33.04;94357.19;4981454;28;20084;-75
2021/04/30 15:40:31;;;;;;;7.55;2.90;;;;;;;28.01;33.82;94353.28;4969250;28;20070;-74
2021/04/30 15:42:57;;;;;;;7.15;2.13;;;;;;;27.95;35.00;94360.56;4983800;28;20038;-75
2021/04/30 15:45:22;;;;;;;9.68;2.85;;;;;;;28.05;33.99;94367.59;4971856;28;20031;-74
2021/04/30 15:47:48;;;;;;;8.70;2.65;;;;;;;27.88;33.57;94356.72;4958568;28;20531;-74
2021/04/30 15:50:14;;;;;;;6.03;2.20;;;;;;;27.87;34.02;94357.81;4975510;28;20050;-75
2021/04/30 15:52:40;;;;;;;10.35;2.47;;;;;;;28.16;34.11;94358.34;4985505;28;20055;-75
2021/04/30 15:55:16;;;;;;;13.10;3.30;;;;;;;28.27;32.20;94363.22;4984007;28;20027;-75
2021/04/30 15:57:41;;;;;;;6.38;2.50;;;;;;;27.80;33.65;94357.38;4952774;28;20439;-73
2021/04/30 16:00:08;;;;;;;16.48;3.13;;;;;;;27.86;35.05;94361.53;4976360;28;20030;-74
2021/04/30 16:02:35;;;;;;;10.23;2.63;;;;;;;27.68;35.37;94357.84;4977176;28;20616;-74
2021/04/30 16:05:00;;;;;;;6.40;2.50;;;;;;;27.82;34.96;94369.31;4988424;28;20121;-75
2021/04/30 16:07:26;;;;;;;10.75;2.97;;;;;;;27.72;35.49;94372.94;4986390;28;20542;-75
2021/04/30 16:09:51;;;;;;;17.27;3.55;;;;;;;27.38;36.02;94371.63;4987456;28;20030;-75
2021/04/30 16:12:17;;;;;;;13.00;3.72;;;;;;;27.22;35.26;94371.84;4986895;28;20041;-74
2021/04/30 16:14:42;;;;;;;11.48;3.17;;;;;;;27.17;36.27;94376.44;4986566;28;20038;-74
2021/04/30 16:17:08;;;;;;;11.75;2.72;;;;;;;27.10;36.31;94376.78;4987824;28;20030;-74
2021/04/30 16:19:33;;;;;;;10.43;3.92;;;;;;;27.01;35.86;94369.75;4986400;28;20522;-74
2021/04/30 16:21:59;;;;;;;9.35;3.42;;;;;;;26.82;36.53;94376.91;4988118;28;20018;-74
2021/04/30 16:24:24;;;;;;;10.05;3.00;;;;;;;26.66;37.24;94377.09;4986382;28;20034;-74
2021/04/30 16:26:52;;;;;;;7.63;3.20;;;;;;;26.49;37.22;94376.75;4986932;28;20025;-75
2021/04/30 16:29:17;;;;;;;6.93;3.28;;;;;;;26.26;37.76;94377.56;4987655;28;20030;-74
2021/04/30 16:31:43;;;;;;;8.25;3.10;;;;;;;26.10;36.97;94376.13;4986383;28;20038;-74
2021/04/30 16:34:08;;;;;;;12.32;3.65;;;;;;;25.94;37.95;94385.31;4987562;28;20515;-74
2021/04/30 16:36:34;;;;;;;10.65;3.45;;;;;;;25.85;37.91;94387.75;4968211;28;20085;-74
2021/04/30 16:38:59;;;;;;;10.60;5.05;;;;;;;25.76;39.16;94384.13;4988046;28;20564;-75